Melville, Louisiana
Current Conditions -  °F | °C
As of 5:15 PM on Thursday 27 Nov 2014 (Local Time) from KHZR Reporting Station
Clear Clear  
Wind Chill: 52°   Ceiling: Unl
Heat Index: 52°   Visibility: 10mi
Dew Point: 31°   Wind: 6mph
Humidity: 44%   Direction: 340°NNW
Pressure: 30.43"   Gusts: NA
Location:  30.69°N, 91.74°W
Report Text: KHZR 272315Z AUTO 34005KT 10SM CLR 11/M01 A3043 RMK AO2 T01121007
Loading
Personal Weather Stations






























Interactive Weather Map New forecast layout! Learn more

10-Day Weather Forecast

Advertisements
Track Severe Weather on mobile